F.r. Bigelow — WDB8153 — position and weather

sailwx.info

Track history (hours):
 
Tides and Currents Weather Stations Pressure Air Temp Water Temp Dewpoint Dewpoint Depression Visibility Wind Speed Wind Dir Waves Ship Positions

F.r. Bigelow

More information available from US FCC via Universal Licensing System and Coast Guard Vessel Documentation Center.

Last reported at 2014-Aug-20 11:16 UTC. Time now 2014-Aug-20 20:31 UTC.
Position N 29°56' W 090°12'.

Length 46 m; draft 2.7 m.

Type: Tow > 200 m length. MMSI: 366953890.

Date/timePositionNaut miles runAvg speedWind from/ knotsBaromVisibWave heightAir tempDewpointWater temp
2014-Aug-20 11:16N 29°56' W 090°12'4 4.1
2014-Aug-20 10:14N 29°58' W 090°15'3 4.5
2014-Aug-20 09:32N 29°57' W 090°19'5 4.5
2014-Aug-20 08:32N 29°57' W 090°24'4 4.3
2014-Aug-20 07:33N 29°60' W 090°28'4 3.9
2014-Aug-20 06:33N 30°03' W 090°31'5 5.0
2014-Aug-20 05:33N 30°02' W 090°36'4 4.0
2014-Aug-20 04:33N 30°03' W 090°41'5 5.0
2014-Aug-20 03:33N 30°01' W 090°46'3 2.9
2014-Aug-20 02:23N 30°01' W 090°50'5 4.3
2014-Aug-20 01:19N 30°04' W 090°54'4 3.4
2014-Aug-20 00:07N 30°07' W 090°58'3 3.5
2014-Aug-19 23:19N 30°08' W 091°01'5 0.1
2014-Aug-18 08:28N 30°08' W 090°55'3 3.2
2014-Aug-18 07:32N 30°05' W 090°54'3 2.6
2014-Aug-18 06:33N 30°04' W 090°52'0 0.0
2014-Aug-18 04:15N 30°04' W 090°52'0 0.0
2014-Aug-18 03:31N 30°04' W 090°52'2 2.2
2014-Aug-18 02:27N 30°02' W 090°50'2 2.2
2014-Aug-18 01:33N 29°60' W 090°50'4 3.7
2014-Aug-18 00:33N 30°01' W 090°46'13 2.2
2014-Aug-17 18:33N 30°03' W 090°31'0 0.0
2014-Aug-17 17:34N 30°03' W 090°31'0 0.0
2014-Aug-17 16:33N 30°03' W 090°31'0 0.0
2014-Aug-17 15:33N 30°03' W 090°31'0 0.1
2014-Aug-17 14:33N 30°03' W 090°31'0 0.0
2014-Aug-17 13:33N 30°03' W 090°31'3 2.9
2014-Aug-17 12:26N 30°00' W 090°28'4 4.8
2014-Aug-17 11:33N 29°59' W 090°24'5 4.8
2014-Aug-17 10:33N 29°56' W 090°19'11 0.2
2014-Aug-15 12:33N 30°03' W 090°29'2 1.9
2014-Aug-15 11:33N 30°03' W 090°31'0 0.0
2014-Aug-15 10:33N 30°03' W 090°31'0 0.0
2014-Aug-15 09:33N 30°03' W 090°31'0 0.0
2014-Aug-15 08:33N 30°03' W 090°31'0 0.0
2014-Aug-15 07:33N 30°03' W 090°31'0 0.0
2014-Aug-15 06:33N 30°03' W 090°31'0 0.0
2014-Aug-15 05:33N 30°03' W 090°31'4 4.5
2014-Aug-15 04:33N 30°02' W 090°36'5 4.8
2014-Aug-15 03:33N 30°02' W 090°42'6 6.1
2014-Aug-15 02:33N 29°59' W 090°48'  
2014-Aug-12 12:29N 30°04' W 090°52'0 0.0
2014-Aug-12 11:24N 30°04' W 090°52'3 2.7
2014-Aug-12 10:26N 30°01' W 090°50'3 3.1
2014-Aug-12 09:33N 29°60' W 090°48'14 2.8
2014-Aug-12 04:32N 30°03' W 090°32'31 1.7
2014-Aug-11 09:30N 29°47' W 090°01'10 4.7
2014-Aug-11 07:18N 29°38' W 089°55'  
Track history (hours):
 
Tides and Currents Weather Stations Pressure Air Temp Water Temp Dewpoint Dewpoint Depression Visibility Wind Speed Wind Dir Waves Ship Positions

F.r. Bigelow

More information available from US FCC via Universal Licensing System and Coast Guard Vessel Documentation Center.

Last reported at 2014-Aug-20 11:16 UTC. Time now 2014-Aug-20 20:31 UTC.
Position N 29°56' W 090°12'.

Length 46 m; draft 2.7 m.

Type: Tow > 200 m length. MMSI: 366953890.

Date/timePositionNaut miles runAvg speedWind from/ knotsBaromVisibWave heightAir tempDewpointWater temp
2014-Aug-20 11:16N 29°56' W 090°12'4 4.1
2014-Aug-20 10:14N 29°58' W 090°15'3 4.5
2014-Aug-20 09:32N 29°57' W 090°19'5 4.5
2014-Aug-20 08:32N 29°57' W 090°24'4 4.3
2014-Aug-20 07:33N 29°60' W 090°28'4 3.9
2014-Aug-20 06:33N 30°03' W 090°31'5 5.0
2014-Aug-20 05:33N 30°02' W 090°36'4 4.0
2014-Aug-20 04:33N 30°03' W 090°41'5 5.0
2014-Aug-20 03:33N 30°01' W 090°46'3 2.9
2014-Aug-20 02:23N 30°01' W 090°50'5 4.3
2014-Aug-20 01:19N 30°04' W 090°54'4 3.4
2014-Aug-20 00:07N 30°07' W 090°58'3 3.5
2014-Aug-19 23:19N 30°08' W 091°01'5 0.1
2014-Aug-18 08:28N 30°08' W 090°55'3 3.2
2014-Aug-18 07:32N 30°05' W 090°54'3 2.6
2014-Aug-18 06:33N 30°04' W 090°52'0 0.0
2014-Aug-18 04:15N 30°04' W 090°52'0 0.0
2014-Aug-18 03:31N 30°04' W 090°52'2 2.2
2014-Aug-18 02:27N 30°02' W 090°50'2 2.2
2014-Aug-18 01:33N 29°60' W 090°50'4 3.7
2014-Aug-18 00:33N 30°01' W 090°46'13 2.2
2014-Aug-17 18:33N 30°03' W 090°31'0 0.0
2014-Aug-17 17:34N 30°03' W 090°31'0 0.0
2014-Aug-17 16:33N 30°03' W 090°31'0 0.0
2014-Aug-17 15:33N 30°03' W 090°31'0 0.1
2014-Aug-17 14:33N 30°03' W 090°31'0 0.0
2014-Aug-17 13:33N 30°03' W 090°31'3 2.9
2014-Aug-17 12:26N 30°00' W 090°28'4 4.8
2014-Aug-17 11:33N 29°59' W 090°24'5 4.8
2014-Aug-17 10:33N 29°56' W 090°19'11 0.2
2014-Aug-15 12:33N 30°03' W 090°29'2 1.9
2014-Aug-15 11:33N 30°03' W 090°31'0 0.0
2014-Aug-15 10:33N 30°03' W 090°31'0 0.0
2014-Aug-15 09:33N 30°03' W 090°31'0 0.0
2014-Aug-15 08:33N 30°03' W 090°31'0 0.0
2014-Aug-15 07:33N 30°03' W 090°31'0 0.0
2014-Aug-15 06:33N 30°03' W 090°31'0 0.0
2014-Aug-15 05:33N 30°03' W 090°31'4 4.5
2014-Aug-15 04:33N 30°02' W 090°36'5 4.8
2014-Aug-15 03:33N 30°02' W 090°42'6 6.1
2014-Aug-15 02:33N 29°59' W 090°48'  
2014-Aug-12 12:29N 30°04' W 090°52'0 0.0
2014-Aug-12 11:24N 30°04' W 090°52'3 2.7
2014-Aug-12 10:26N 30°01' W 090°50'3 3.1
2014-Aug-12 09:33N 29°60' W 090°48'14 2.8
2014-Aug-12 04:32N 30°03' W 090°32'31 1.7
2014-Aug-11 09:30N 29°47' W 090°01'10 4.7
2014-Aug-11 07:18N 29°38' W 089°55'  

Dump ship's entire track history